Terminal Aerodrome Forecast
Issued by NWS Newport/Morehead City, NC

Home | Current Version | Previous Version | Text Only | Print | Product List | Glossary On
Versions: 1 2 3 4 5 6 7 8 9 10 11 12 13 14 15 16 17 18 19
383
FTUS42 KMHX 172016 AAA
TAFEWN
TAF AMD
KEWN 172016Z 1720/1818 08007KT P6SM OVC019
     FM172200 VRB04KT 6SM -RADZ OVC009
     FM180300 21005KT 4SM -DZ BKN007
     FM180900 32006KT P6SM OVC008
     FM181200 34006KT P6SM BKN050
     FM181600 04007KT P6SM SKC=

USA.gov is the U.S. government's official web portal to all federal, state and local government web resources and services.